createdAt,value
2022-08-27T00:01:27.721Z,7.00
2022-08-27T00:03:56.069Z,7.00
2022-08-27T00:06:25.751Z,6.77
2022-08-27T00:08:55.133Z,8.20
2022-08-27T00:11:25.364Z,7.20
2022-08-27T00:13:54.528Z,7.40
2022-08-27T00:16:22.467Z,7.73
2022-08-27T00:18:50.279Z,7.33
2022-08-27T00:21:18.790Z,6.97
2022-08-27T00:23:46.814Z,7.00
2022-08-27T00:26:15.831Z,7.20
2022-08-27T00:28:44.762Z,7.23
2022-08-27T00:31:14.143Z,7.03
2022-08-27T00:33:42.676Z,7.33
2022-08-27T00:36:11.401Z,7.20
2022-08-27T00:38:40.358Z,7.57
2022-08-27T00:41:10.113Z,7.30
2022-08-27T00:43:49.055Z,7.40
2022-08-27T00:46:23.950Z,6.83
2022-08-27T00:48:54.206Z,6.90
2022-08-27T00:51:22.916Z,6.73
2022-08-27T00:53:52.654Z,6.40
2022-08-27T00:56:23.626Z,6.50
2022-08-27T00:58:54.791Z,6.87
2022-08-27T01:01:26.009Z,7.30
2022-08-27T01:03:56.424Z,7.37
2022-08-27T01:06:26.898Z,6.80
2022-08-27T01:08:59.740Z,7.17
2022-08-27T01:11:27.521Z,6.10
2022-08-27T01:14:00.939Z,6.93
2022-08-27T01:16:36.407Z,6.77
2022-08-27T01:19:07.148Z,6.17
2022-08-27T01:21:42.507Z,6.10
2022-08-27T01:24:35.630Z,6.30
2022-08-27T01:27:05.669Z,6.73
2022-08-27T01:29:37.173Z,6.20
2022-08-27T01:32:10.686Z,6.43
2022-08-27T01:34:39.103Z,7.20
2022-08-27T01:37:07.401Z,5.77
2022-08-27T01:39:40.724Z,7.10
2022-08-27T01:42:11.421Z,6.40
2022-08-27T01:44:44.071Z,6.27
2022-08-27T01:47:12.221Z,6.50
2022-08-27T01:49:40.021Z,6.63
2022-08-27T01:52:07.848Z,6.40
2022-08-27T01:54:37.299Z,6.30
2022-08-27T01:57:05.970Z,6.23
2022-08-27T01:59:39.457Z,7.33
2022-08-27T02:02:09.146Z,6.83
2022-08-27T02:04:37.161Z,6.97
2022-08-27T02:07:05.913Z,6.97
2022-08-27T02:09:34.162Z,6.47
2022-08-27T02:12:03.930Z,6.70
2022-08-27T02:14:31.788Z,6.30
2022-08-27T02:16:59.731Z,6.63
2022-08-27T02:19:27.831Z,7.47
2022-08-27T02:22:00.094Z,6.90
2022-08-27T02:24:29.049Z,7.57
2022-08-27T02:26:58.582Z,7.20
2022-08-27T02:29:27.739Z,8.17
2022-08-27T02:31:55.520Z,7.90
2022-08-27T02:34:23.460Z,8.53
2022-08-27T02:36:53.797Z,7.63
2022-08-27T02:39:22.158Z,8.30
2022-08-27T02:41:50.213Z,9.50
2022-08-27T02:44:18.027Z,9.23
2022-08-27T02:46:47.460Z,9.63
2022-08-27T02:49:18.059Z,9.57
2022-08-27T02:51:45.876Z,10.60
2022-08-27T02:54:14.350Z,11.27
2022-08-27T02:56:42.128Z,11.07
2022-08-27T02:59:10.242Z,10.57
2022-08-27T03:01:38.054Z,10.40
2022-08-27T03:04:07.278Z,10.60
2022-08-27T03:06:35.053Z,11.43
2022-08-27T03:09:03.177Z,11.07
2022-08-27T03:11:31.897Z,11.70
2022-08-27T03:13:59.913Z,11.17
2022-08-27T03:16:27.926Z,10.47
2022-08-27T03:18:54.881Z,11.80
2022-08-27T03:21:25.693Z,10.77
2022-08-27T03:23:53.805Z,10.23
2022-08-27T03:26:22.380Z,11.03
2022-08-27T03:28:50.200Z,10.40
2022-08-27T03:31:26.887Z,11.40
2022-08-27T03:33:57.300Z,12.53
2022-08-27T03:36:27.729Z,10.53
2022-08-27T03:38:55.820Z,11.57
2022-08-27T03:41:24.224Z,11.30
2022-08-27T03:44:14.777Z,11.13
2022-08-27T03:46:50.040Z,10.73
2022-08-27T03:49:20.364Z,12.60
2022-08-27T03:51:50.877Z,11.30
2022-08-27T03:54:18.822Z,12.47
2022-08-27T03:56:46.926Z,12.30
2022-08-27T03:59:15.432Z,12.20
2022-08-27T04:01:43.360Z,11.20
2022-08-27T04:04:12.881Z,10.70
2022-08-27T04:06:40.871Z,10.83
2022-08-27T04:09:10.158Z,10.67
2022-08-27T04:11:38.406Z,11.30
2022-08-27T04:14:18.229Z,11.00
2022-08-27T04:16:55.806Z,11.77
2022-08-27T04:19:27.345Z,10.87
2022-08-27T04:21:59.394Z,12.33
2022-08-27T04:24:28.773Z,11.07
2022-08-27T04:26:56.573Z,10.63
2022-08-27T04:29:24.710Z,11.20
2022-08-27T04:31:52.515Z,11.57
2022-08-27T04:34:20.506Z,11.40
2022-08-27T04:36:48.607Z,11.37
2022-08-27T04:39:16.813Z,11.57
2022-08-27T04:41:45.909Z,11.37
2022-08-27T04:44:13.731Z,11.67
2022-08-27T04:46:43.090Z,11.43
2022-08-27T04:49:16.901Z,11.83
2022-08-27T04:51:44.794Z,11.97
2022-08-27T04:54:13.678Z,11.93
2022-08-27T04:56:41.794Z,12.23
2022-08-27T04:59:11.917Z,11.67
2022-08-27T05:01:41.463Z,11.30
2022-08-27T05:04:10.102Z,11.63
2022-08-27T05:06:37.952Z,12.07
2022-08-27T05:09:06.517Z,11.10
2022-08-27T05:11:35.272Z,12.53
2022-08-27T05:14:04.621Z,12.40
2022-08-27T05:16:36.298Z,12.10
2022-08-27T05:19:06.418Z,12.23
2022-08-27T05:21:38.044Z,12.40
2022-08-27T05:24:07.745Z,12.33
2022-08-27T05:26:37.131Z,11.50
2022-08-27T05:29:06.272Z,11.20
2022-08-27T05:31:35.871Z,11.70
2022-08-27T05:34:10.169Z,11.80
2022-08-27T05:36:47.746Z,11.83
2022-08-27T05:39:17.859Z,11.37
2022-08-27T05:41:45.619Z,12.80
2022-08-27T05:44:39.752Z,12.13
2022-08-27T05:47:03.978Z,12.97
2022-08-27T05:49:31.928Z,12.10
2022-08-27T05:51:59.964Z,11.80
2022-08-27T05:54:27.818Z,11.80
2022-08-27T05:56:55.565Z,11.67
2022-08-27T05:59:40.696Z,10.97
2022-08-27T06:02:11.174Z,11.00
2022-08-27T06:04:39.006Z,11.13
2022-08-27T06:07:09.221Z,11.57
2022-08-27T06:09:37.200Z,11.67
2022-08-27T06:12:06.149Z,10.83
2022-08-27T06:14:34.238Z,11.43
2022-08-27T06:17:02.570Z,11.63
2022-08-27T06:19:31.876Z,11.90
2022-08-27T06:22:09.880Z,12.03
2022-08-27T06:24:40.230Z,12.30
2022-08-27T06:27:09.797Z,13.00
2022-08-27T06:29:37.621Z,12.70
2022-08-27T06:32:06.084Z,12.70
2022-08-27T06:34:35.252Z,13.87
2022-08-27T06:37:03.431Z,12.30
2022-08-27T06:39:31.499Z,13.07
2022-08-27T06:42:00.279Z,13.70
2022-08-27T06:44:28.149Z,14.13
2022-08-27T06:46:56.641Z,13.77
2022-08-27T06:49:24.632Z,14.27
2022-08-27T06:51:53.953Z,14.23
2022-08-27T06:54:21.991Z,14.40
2022-08-27T06:56:50.163Z,13.67
2022-08-27T06:59:19.714Z,14.07
2022-08-27T07:01:51.078Z,14.47
2022-08-27T07:04:21.437Z,14.03
2022-08-27T07:06:50.137Z,16.90
2022-08-27T07:09:20.814Z,16.40
2022-08-27T07:11:48.734Z,15.80
2022-08-27T07:14:16.482Z,15.53
2022-08-27T07:16:45.344Z,17.07
2022-08-27T07:19:16.017Z,16.77
2022-08-27T07:21:44.893Z,17.33
2022-08-27T07:24:13.708Z,16.87
2022-08-27T07:26:44.560Z,18.10
2022-08-27T07:29:14.316Z,17.03
2022-08-27T07:31:42.692Z,16.87
2022-08-27T07:34:10.523Z,16.83
2022-08-27T07:36:38.879Z,16.60
2022-08-27T07:39:07.285Z,15.87
2022-08-27T07:41:57.615Z,16.77
2022-08-27T07:44:28.074Z,15.53
2022-08-27T07:46:59.272Z,15.33
2022-08-27T07:49:29.489Z,15.83
2022-08-27T07:51:57.346Z,15.50
2022-08-27T07:54:25.508Z,15.20
2022-08-27T07:56:55.299Z,15.70
2022-08-27T07:59:24.479Z,15.60
2022-08-27T08:01:54.743Z,15.70
2022-08-27T08:04:22.719Z,14.30
2022-08-27T08:06:51.091Z,15.60
2022-08-27T08:09:19.151Z,16.17
2022-08-27T08:11:47.019Z,16.47
2022-08-27T08:14:14.816Z,15.87
2022-08-27T08:16:43.084Z,16.57
2022-08-27T08:19:12.546Z,15.60
2022-08-27T08:21:40.521Z,15.13
2022-08-27T08:24:08.588Z,15.63
2022-08-27T08:26:36.831Z,16.10
2022-08-27T08:29:05.364Z,15.57
2022-08-27T08:31:33.343Z,16.00
2022-08-27T08:34:01.165Z,16.30
2022-08-27T08:36:30.321Z,15.37
2022-08-27T08:38:58.419Z,17.50
2022-08-27T08:41:41.032Z,15.33
2022-08-27T08:44:17.688Z,17.33
2022-08-27T08:46:54.145Z,16.17
2022-08-27T08:49:33.236Z,16.03
2022-08-27T08:52:17.013Z,15.20
2022-08-27T08:55:04.424Z,14.30
2022-08-27T08:57:37.550Z,13.53
2022-08-27T09:00:12.179Z,13.33
2022-08-27T09:02:40.292Z,13.90
2022-08-27T09:05:11.419Z,12.47
2022-08-27T09:07:48.610Z,14.23
2022-08-27T09:10:25.343Z,13.60
2022-08-27T09:12:57.084Z,12.33
2022-08-27T09:15:29.683Z,12.87
2022-08-27T09:18:06.593Z,13.63
2022-08-27T09:20:36.421Z,14.20
2022-08-27T09:23:12.360Z,15.33
2022-08-27T09:25:43.010Z,12.17
2022-08-27T09:28:28.292Z,12.90
2022-08-27T09:30:56.588Z,12.53
2022-08-27T09:33:24.400Z,12.83
2022-08-27T09:35:53.016Z,11.27
2022-08-27T09:38:28.383Z,13.15
2022-08-27T09:41:01.133Z,12.13
2022-08-27T09:43:31.902Z,12.23
2022-08-27T09:46:02.453Z,11.40
2022-08-27T09:48:32.366Z,11.77
2022-08-27T09:51:03.226Z,12.68
2022-08-27T09:53:38.403Z,12.15
2022-08-27T09:56:09.540Z,11.15
2022-08-27T09:58:51.524Z,11.98
2022-08-27T10:01:22.734Z,11.45
2022-08-27T10:04:05.835Z,12.23
2022-08-27T10:06:34.311Z,11.35
2022-08-27T10:09:10.245Z,11.35
2022-08-27T10:11:45.478Z,11.70
2022-08-27T10:14:16.992Z,11.23
2022-08-27T10:16:54.104Z,11.10
2022-08-27T10:19:43.521Z,12.45
2022-08-27T10:22:25.716Z,11.63
2022-08-27T10:25:08.976Z,10.98
2022-08-27T10:27:49.711Z,12.73
2022-08-27T10:30:21.381Z,11.05
2022-08-27T10:33:02.950Z,11.43
2022-08-27T10:35:36.859Z,11.25
2022-08-27T10:38:22.070Z,11.00
2022-08-27T10:40:57.185Z,10.00
2022-08-27T10:43:48.407Z,10.95
2022-08-27T10:46:37.778Z,10.90
2022-08-27T10:49:13.580Z,11.60
2022-08-27T10:51:55.962Z,11.27
2022-08-27T10:54:30.007Z,12.17
2022-08-27T10:57:28.659Z,14.47
2022-08-27T11:00:02.897Z,15.70
2022-08-27T11:02:37.200Z,16.27
2022-08-27T11:05:10.563Z,17.43
2022-08-27T11:07:41.974Z,16.03
2022-08-27T11:10:14.783Z,15.90
2022-08-27T11:12:48.885Z,16.60
2022-08-27T11:15:21.072Z,16.20
2022-08-27T11:17:55.709Z,16.73
2022-08-27T11:23:55.158Z,16.73
2022-08-27T11:26:22.966Z,15.13
2022-08-27T11:28:55.913Z,15.90
2022-08-27T11:31:30.419Z,16.43
2022-08-27T11:34:05.647Z,15.30
2022-08-27T11:37:03.682Z,14.60
2022-08-27T11:39:44.632Z,13.57
2022-08-27T11:42:20.087Z,13.40
2022-08-27T11:44:54.266Z,14.40
2022-08-27T11:47:25.285Z,14.20
2022-08-27T11:49:56.186Z,14.27
2022-08-27T11:52:27.013Z,14.17
2022-08-27T11:55:09.944Z,16.03
2022-08-27T11:57:38.539Z,17.23
2022-08-27T12:00:19.276Z,16.97
2022-08-27T12:02:58.938Z,16.40
2022-08-27T12:05:37.027Z,15.13
2022-08-27T12:08:16.595Z,13.80
2022-08-27T12:11:04.523Z,11.67
2022-08-27T12:13:39.382Z,6.60
2022-08-27T12:16:21.372Z,7.27
2022-08-27T12:19:04.937Z,6.73
2022-08-27T12:21:46.131Z,6.17
2022-08-27T12:24:24.516Z,5.93
2022-08-27T12:26:57.277Z,6.27
2022-08-27T12:29:31.165Z,5.53
2022-08-27T12:32:18.303Z,6.47
2022-08-27T12:34:56.535Z,5.90
2022-08-27T12:37:30.847Z,5.53
2022-08-27T12:40:03.134Z,6.13
2022-08-27T12:42:30.986Z,5.40
2022-08-27T12:44:59.977Z,4.97
2022-08-27T12:47:31.223Z,4.80
2022-08-27T12:50:02.111Z,5.37
2022-08-27T12:52:58.679Z,5.33
2022-08-27T12:55:39.861Z,5.40
2022-08-27T12:58:15.842Z,5.40
2022-08-27T13:01:22.247Z,5.53
2022-08-27T13:03:54.126Z,6.03
2022-08-27T13:06:27.281Z,5.90
2022-08-27T13:08:56.851Z,5.47
2022-08-27T13:11:28.072Z,5.87
2022-08-27T13:14:08.384Z,6.50
2022-08-27T13:16:39.667Z,7.10
2022-08-27T13:19:18.338Z,7.77
2022-08-27T13:21:49.982Z,7.70
2022-08-27T13:24:22.485Z,7.70
2022-08-27T13:26:54.693Z,8.40
2022-08-27T13:29:22.699Z,8.33
2022-08-27T13:31:51.378Z,7.93
2022-08-27T13:34:23.511Z,8.27
2022-08-27T13:36:57.492Z,8.47
2022-08-27T13:39:26.587Z,8.67
2022-08-27T13:41:55.491Z,8.90
2022-08-27T13:44:26.667Z,9.20
2022-08-27T13:47:00.701Z,9.37
2022-08-27T13:49:32.323Z,9.47
2022-08-27T13:52:03.462Z,9.20
2022-08-27T13:54:33.354Z,10.03
2022-08-27T13:57:08.426Z,9.87
2022-08-27T13:59:43.315Z,10.27
2022-08-27T14:02:23.526Z,10.13
2022-08-27T14:05:07.059Z,9.87
2022-08-27T14:07:37.894Z,10.23
2022-08-27T14:10:08.714Z,9.50
2022-08-27T14:12:41.079Z,9.80
2022-08-27T14:15:22.669Z,11.00
2022-08-27T14:17:51.323Z,10.13
2022-08-27T14:20:21.497Z,10.70
2022-08-27T14:22:50.397Z,9.83
2022-08-27T14:25:19.141Z,10.07
2022-08-27T14:27:54.166Z,9.13
2022-08-27T14:30:25.264Z,10.50
2022-08-27T14:32:59.402Z,11.50
2022-08-27T14:35:32.947Z,11.63
2022-08-27T14:38:02.439Z,9.87
2022-08-27T14:40:31.482Z,10.80
2022-08-27T14:43:00.979Z,11.47
2022-08-27T14:45:28.850Z,11.53
2022-08-27T14:47:59.013Z,11.57
2022-08-27T14:50:31.797Z,11.30
2022-08-27T14:52:59.635Z,10.57
2022-08-27T14:55:27.651Z,11.30
2022-08-27T14:57:55.441Z,11.57
2022-08-27T15:00:23.224Z,11.23
2022-08-27T15:02:51.355Z,11.03
2022-08-27T15:05:22.506Z,10.63
2022-08-27T15:07:57.313Z,10.30
2022-08-27T15:10:26.197Z,11.43
2022-08-27T15:12:54.680Z,11.33
2022-08-27T15:15:22.685Z,10.03
2022-08-27T15:17:50.612Z,9.13
2022-08-27T15:20:20.289Z,9.00
2022-08-27T15:22:51.228Z,9.40
2022-08-27T15:25:21.307Z,9.63
2022-08-27T15:27:49.338Z,11.10
2022-08-27T15:30:19.045Z,10.70
2022-08-27T15:32:49.022Z,10.63
2022-08-27T15:35:19.055Z,9.60
2022-08-27T15:37:47.150Z,9.73
2022-08-27T15:40:17.031Z,10.80
2022-08-27T15:42:47.075Z,10.73
2022-08-27T15:45:15.918Z,11.10
2022-08-27T15:47:43.766Z,9.73
2022-08-27T15:50:12.133Z,9.27
2022-08-27T15:52:41.512Z,9.90
2022-08-27T15:55:15.706Z,10.50
2022-08-27T15:57:43.500Z,9.33
2022-08-27T16:00:14.024Z,11.27
2022-08-27T16:02:42.507Z,11.47
2022-08-27T16:05:12.062Z,12.20
2022-08-27T16:07:39.862Z,14.03
2022-08-27T16:10:09.331Z,14.63
2022-08-27T16:12:37.632Z,13.47
2022-08-27T16:15:06.683Z,14.57
2022-08-27T16:17:36.449Z,14.90
2022-08-27T16:20:06.079Z,14.87
2022-08-27T16:22:34.950Z,14.03
2022-08-27T16:25:03.390Z,15.47
2022-08-27T16:27:31.166Z,16.13
2022-08-27T16:29:58.961Z,16.00
2022-08-27T16:32:28.796Z,17.97
2022-08-27T16:34:58.303Z,16.13
2022-08-27T16:37:26.145Z,17.03
2022-08-27T16:39:54.250Z,16.93
2022-08-27T16:42:22.418Z,17.13
2022-08-27T16:44:50.861Z,15.57
2022-08-27T16:47:18.769Z,17.87
2022-08-27T16:50:04.097Z,17.87
2022-08-27T16:52:33.661Z,16.80
2022-08-27T16:55:01.573Z,17.63
2022-08-27T16:57:29.343Z,15.63
2022-08-27T16:59:57.168Z,15.87
2022-08-27T17:02:30.568Z,17.10
2022-08-27T17:05:07.246Z,16.93
2022-08-27T17:07:49.338Z,15.37
2022-08-27T17:10:18.347Z,16.40
2022-08-27T17:12:47.798Z,15.93
2022-08-27T17:15:16.913Z,16.97
2022-08-27T17:17:45.503Z,16.80
2022-08-27T17:20:14.950Z,16.30
2022-08-27T17:22:43.313Z,16.13
2022-08-27T17:25:12.630Z,16.27
2022-08-27T17:27:40.459Z,15.87
2022-08-27T17:30:10.195Z,16.20
2022-08-27T17:32:40.702Z,16.00
2022-08-27T17:35:10.851Z,15.50
2022-08-27T17:37:39.201Z,15.50
2022-08-27T17:40:09.909Z,15.33
2022-08-27T17:42:39.446Z,14.77
2022-08-27T17:45:08.279Z,14.03
2022-08-27T17:47:36.246Z,15.80
2022-08-27T17:50:04.295Z,16.30
2022-08-27T17:52:34.314Z,14.93
2022-08-27T17:55:02.167Z,15.90
2022-08-27T17:57:40.558Z,16.37
2022-08-27T18:00:13.180Z,15.53
2022-08-27T18:02:44.288Z,16.37
2022-08-27T18:05:13.758Z,15.80
2022-08-27T18:07:42.431Z,16.67
2022-08-27T18:10:11.162Z,15.53
2022-08-27T18:12:40.208Z,15.60
2022-08-27T18:15:15.006Z,15.70
2022-08-27T18:17:43.384Z,17.47
2022-08-27T18:20:13.811Z,16.20
2022-08-27T18:22:48.347Z,17.23
2022-08-27T18:25:18.543Z,17.70
2022-08-27T18:27:49.103Z,16.03
2022-08-27T18:30:19.130Z,17.57
2022-08-27T18:32:47.287Z,17.43
2022-08-27T18:35:18.714Z,18.20
2022-08-27T18:37:46.808Z,17.20
2022-08-27T18:40:16.439Z,17.17
2022-08-27T18:42:44.886Z,18.00
2022-08-27T18:45:15.880Z,18.30
2022-08-27T18:47:45.561Z,16.53
2022-08-27T18:50:17.492Z,16.83
2022-08-27T18:52:46.394Z,18.27
2022-08-27T18:55:16.399Z,17.90
2022-08-27T18:57:44.209Z,17.13
2022-08-27T19:00:14.800Z,17.87
2022-08-27T19:02:47.834Z,16.70
2022-08-27T19:05:23.817Z,17.10
2022-08-27T19:07:51.607Z,17.70
2022-08-27T19:10:19.704Z,16.67
2022-08-27T19:12:47.831Z,16.03
2022-08-27T19:15:15.727Z,16.90
2022-08-27T19:17:47.991Z,16.27
2022-08-27T19:20:17.405Z,15.40
2022-08-27T19:22:45.398Z,17.07
2022-08-27T19:25:13.739Z,18.10
2022-08-27T19:27:41.969Z,16.27
2022-08-27T19:30:11.006Z,16.27
2022-08-27T19:32:38.834Z,17.07
2022-08-27T19:35:09.138Z,17.43
2022-08-27T19:37:42.579Z,16.30
2022-08-27T19:40:12.461Z,17.33
2022-08-27T19:42:42.072Z,17.00
2022-08-27T19:45:10.629Z,16.73
2022-08-27T19:47:39.023Z,16.27
2022-08-27T19:50:09.049Z,15.77
2022-08-27T19:52:36.931Z,17.37
2022-08-27T19:55:17.584Z,17.27
2022-08-27T19:57:46.099Z,17.07
2022-08-27T20:00:16.129Z,16.87
2022-08-27T20:02:43.926Z,18.33
2022-08-27T20:05:20.367Z,17.87
2022-08-27T20:07:49.220Z,18.63
2022-08-27T20:10:17.521Z,17.47
2022-08-27T20:12:46.133Z,16.67
2022-08-27T20:15:14.638Z,16.47
2022-08-27T20:17:44.007Z,17.93
2022-08-27T20:20:15.190Z,16.90
2022-08-27T20:22:44.120Z,17.33
2022-08-27T20:25:13.218Z,16.73
2022-08-27T20:27:41.710Z,16.30
2022-08-27T20:30:14.453Z,17.43
2022-08-27T20:32:42.509Z,16.10
2022-08-27T20:35:12.097Z,17.33
2022-08-27T20:37:42.454Z,16.23
2022-08-27T20:40:13.917Z,16.70
2022-08-27T20:42:41.880Z,16.10
2022-08-27T20:45:12.431Z,18.10
2022-08-27T20:47:40.983Z,16.77
2022-08-27T20:50:11.816Z,16.33
2022-08-27T20:52:42.089Z,17.27
2022-08-27T20:55:12.044Z,18.10
2022-08-27T20:58:11.639Z,16.43
2022-08-27T21:00:41.549Z,17.33
2022-08-27T21:03:09.827Z,17.77
2022-08-27T21:05:38.945Z,18.07
2022-08-27T21:08:08.575Z,17.03
2022-08-27T21:10:36.642Z,17.40
2022-08-27T21:13:06.687Z,18.83
2022-08-27T21:15:36.880Z,16.77
2022-08-27T21:18:05.028Z,16.27
2022-08-27T21:20:33.110Z,17.47
2022-08-27T21:23:01.683Z,18.17
2022-08-27T21:25:31.376Z,17.20
2022-08-27T21:28:00.321Z,17.70
2022-08-27T21:30:28.468Z,18.57
2022-08-27T21:32:56.999Z,17.80
2022-08-27T21:35:26.680Z,17.20
2022-08-27T21:37:55.684Z,18.87
2022-08-27T21:40:25.095Z,18.50
2022-08-27T21:42:54.783Z,18.60
2022-08-27T21:45:23.035Z,18.03
2022-08-27T21:47:51.756Z,18.27
2022-08-27T21:50:20.241Z,18.33
2022-08-27T21:52:48.307Z,18.13
2022-08-27T21:55:16.610Z,16.90
2022-08-27T21:57:44.392Z,14.87
2022-08-27T22:00:36.711Z,14.50
2022-08-27T22:03:04.808Z,13.83
2022-08-27T22:05:40.151Z,16.47
2022-08-27T22:08:09.200Z,14.93
2022-08-27T22:10:37.464Z,15.13
2022-08-27T22:13:05.618Z,16.63
2022-08-27T22:15:35.345Z,16.73
2022-08-27T22:18:03.309Z,16.07
2022-08-27T22:20:31.261Z,16.20
2022-08-27T22:22:59.103Z,16.13
2022-08-27T22:25:27.983Z,17.13
2022-08-27T22:27:56.278Z,17.93
2022-08-27T22:30:24.509Z,17.63
2022-08-27T22:32:54.259Z,19.00
2022-08-27T22:35:22.815Z,18.93
2022-08-27T22:37:51.721Z,18.80
2022-08-27T22:40:22.245Z,18.47
2022-08-27T22:42:50.638Z,17.97
2022-08-27T22:45:19.945Z,19.57
2022-08-27T22:47:48.210Z,19.70
2022-08-27T22:50:17.962Z,18.93
2022-08-27T22:52:48.532Z,20.87
2022-08-27T22:55:19.318Z,19.23
2022-08-27T22:57:47.662Z,19.93
2022-08-27T23:00:19.813Z,18.37
2022-08-27T23:02:47.757Z,17.13
2022-08-27T23:05:17.981Z,17.40
2022-08-27T23:07:46.411Z,17.30
2022-08-27T23:10:21.814Z,16.60
2022-08-27T23:12:50.160Z,18.20
2022-08-27T23:15:19.523Z,18.63
2022-08-27T23:17:47.322Z,17.23
2022-08-27T23:20:15.414Z,20.57
2022-08-27T23:22:45.449Z,17.63
2022-08-27T23:25:31.295Z,19.00
2022-08-27T23:27:59.912Z,19.17
2022-08-27T23:30:28.869Z,19.17
2022-08-27T23:32:57.641Z,17.63
2022-08-27T23:35:27.402Z,18.17
2022-08-27T23:37:57.439Z,19.80
2022-08-27T23:40:25.900Z,17.73
2022-08-27T23:42:54.803Z,16.17
2022-08-27T23:45:24.730Z,17.13
2022-08-27T23:47:53.017Z,19.70
2022-08-27T23:50:21.850Z,17.13
2022-08-27T23:52:58.378Z,17.73
2022-08-27T23:55:26.307Z,17.27
2022-08-27T23:57:57.460Z,15.90
